tititudorancea.com
Ararat Weather - Ararat,Victoria,Australia
 
Daily Summary for March 04, 2015 Units:  Metric    English   Both
« Previous Day
Next Day »
Daily Weekly Monthly Yearly Custom
  Current: High: Low: Average:
Temperature: 20.6 °C 25.7 °C 8.8 °C 16.6 °C
Dew Point: 8.6 °C 10.3 °C 5.7 °C 8.2 °C
Humidity: 46% 86% 36% 61%
Wind Speed: 6.1km/h 14.8km/h 0km/h 4.8km/h
Wind Gust: 18.3km/h 27km/h - -
WindWest - - SW
Pressure: 1006 hPa 1012.1 hPa 1006 hPa -
Precipitation: 0 mm      
Historical Graphs
 
 
Ararat weather Find more about Weather in Ararat, AU


 




 


Tabular Data for March 04, 2015
Time Temperature Dew Point Pressure Wind Wind Speed Wind Gust Humidity Rainfall Rate (Hourly)
00:01 13.1 °C 8.8 °C 1012.1 hPa SSW 7.2 km/h 14.8 km/h 75% 0 mm
00:06 12.9 °C 8.6 °C 1012.1 hPa SSW 5 km/h 14.8 km/h 75% 0 mm
00:11 12.8 °C 8.7 °C 1012.1 hPa SSW 5 km/h 14.8 km/h 76% 0 mm
00:16 12.7 °C 8.7 °C 1012.1 hPa SSW 6.1 km/h 11.1 km/h 77% 0 mm
00:21 12.7 °C 8.7 °C 1011.7 hPa SSW 6.1 km/h 11.1 km/h 77% 0 mm
00:26 12.6 °C 8.6 °C 1011.7 hPa SSW 6.1 km/h 11.1 km/h 77% 0 mm
00:31 12.6 °C 8.6 °C 1012.1 hPa SSW 6.1 km/h 11.1 km/h 77% 0 mm
00:36 12.4 °C 8.6 °C 1011.7 hPa South 3.5 km/h 11.1 km/h 77% 0 mm
00:41 12.3 °C 8.4 °C 1011.7 hPa South 2.6 km/h 9.7 km/h 77% 0 mm
00:46 12.2 °C 8.3 °C 1012.1 hPa South 2.6 km/h 8.7 km/h 77% 0 mm
00:51 12.2 °C 8.4 °C 1011.7 hPa South 3.5 km/h 8.7 km/h 78% 0 mm
00:56 12.1 °C 8.3 °C 1012.1 hPa South 2.6 km/h 8.7 km/h 78% 0 mm
01:01 12.1 °C 8.3 °C 1011.7 hPa South 1.1 km/h 7.2 km/h 78% 0 mm
01:06 12.1 °C 8.3 °C 1011.7 hPa SSW 5 km/h 7.2 km/h 78% 0 mm
01:11 11.9 °C 8.2 °C 1011.7 hPa SSW 2.6 km/h 7.2 km/h 78% 0 mm
01:16 11.8 °C 8.2 °C 1011.7 hPa South 3.5 km/h 7.2 km/h 78% 0 mm
01:21 11.8 °C 8.1 °C 1011.7 hPa South 3.5 km/h 7.2 km/h 78% 0 mm
01:26 11.8 °C 8.2 °C 1011.7 hPa South 5 km/h 8.7 km/h 79% 0 mm
01:32 11.7 °C 8.2 °C 1011.7 hPa South 3.5 km/h 8.7 km/h 79% 0 mm
01:36 11.6 °C 8.1 °C 1011.4 hPa South 2.6 km/h 7.2 km/h 79% 0 mm
01:42 11.6 °C 8.1 °C 1011.4 hPa South 1.1 km/h 7.2 km/h 79% 0 mm
01:47 11.4 °C 7.9 °C 1011.4 hPa South 2.6 km/h 5 km/h 79% 0 mm
01:52 11.4 °C 7.9 °C 1011.4 hPa SSW 2.6 km/h 5 km/h 79% 0 mm
01:57 11.4 °C 8.1 °C 1011.4 hPa South 2.6 km/h 6.1 km/h 80% 0 mm
02:02 11.3 °C 7.9 °C 1011.4 hPa South 3.5 km/h 6.1 km/h 80% 0 mm
02:07 11.3 °C 7.9 °C 1011.4 hPa SSW 1.1 km/h 6.1 km/h 80% 0 mm
02:12 11.2 °C 7.8 °C 1011.1 hPa SSW 2.6 km/h 6.1 km/h 80% 0 mm
02:17 11.2 °C 7.8 °C 1011.1 hPa South 2.6 km/h 6.1 km/h 80% 0 mm
02:22 11.1 °C 7.8 °C 1011.1 hPa SSW 3.5 km/h 6.1 km/h 80% 0 mm
02:27 11 °C 7.8 °C 1011.1 hPa South 2.6 km/h 6.1 km/h 81% 0 mm
02:32 11 °C 7.8 °C 1011.1 hPa SSW 2.6 km/h 6.1 km/h 81% 0 mm
02:37 11 °C 7.8 °C 1011.1 hPa SSW 3.5 km/h 7.2 km/h 81% 0 mm
02:42 11 °C 7.8 °C 1010.7 hPa SSW 2.6 km/h 7.2 km/h 81% 0 mm
02:47 10.9 °C 7.7 °C 1010.7 hPa SSW 2.6 km/h 6.1 km/h 81% 0 mm
02:52 10.9 °C 7.7 °C 1010.7 hPa South 3.5 km/h 6.1 km/h 81% 0 mm
02:57 10.8 °C 7.7 °C 1010.7 hPa South 2.6 km/h 6.1 km/h 81% 0 mm
03:02 10.8 °C 7.7 °C 1010.7 hPa South 2.6 km/h 5 km/h 81% 0 mm
03:07 10.8 °C 7.7 °C 1010.7 hPa South 2.6 km/h 6.1 km/h 81% 0 mm
03:12 10.7 °C 7.7 °C 1010.4 hPa South 3.5 km/h 6.1 km/h 82% 0 mm
03:18 10.7 °C 7.7 °C 1010.7 hPa SSW 2.6 km/h 6.1 km/h 82% 0 mm
03:23 10.7 °C 7.7 °C 1010.4 hPa South 2.6 km/h 6.1 km/h 82% 0 mm
03:28 10.6 °C 7.8 °C 1010.4 hPa South 3.5 km/h 6.1 km/h 83% 0 mm
03:33 10.6 °C 7.8 °C 1010.4 hPa South 2.6 km/h 6.1 km/h 83% 0 mm
03:38 10.5 °C 7.7 °C 1010.4 hPa SSW 2.6 km/h 6.1 km/h 83% 0 mm
03:43 10.5 °C 7.7 °C 1010.7 hPa SSW 1.1 km/h 6.1 km/h 83% 0 mm
03:48 10.4 °C 7.6 °C 1010.7 hPa South 1.1 km/h 5 km/h 83% 0 mm
03:53 10.4 °C 7.6 °C 1010.4 hPa South 2.6 km/h 5 km/h 83% 0 mm
03:58 10.3 °C 7.6 °C 1010.4 hPa South 1.1 km/h 5 km/h 83% 0 mm
04:03 10.3 °C 7.6 °C 1010.4 hPa South 1.1 km/h 5 km/h 83% 0 mm
04:08 10.2 °C 7.4 °C 1010.7 hPa South 1.1 km/h 5 km/h 83% 0 mm
04:13 10.2 °C 7.4 °C 1010.4 hPa South 1.1 km/h 5 km/h 83% 0 mm
04:18 10.1 °C 7.3 °C 1010.7 hPa SSE 1.1 km/h 3.5 km/h 83% 0 mm
04:23 10 °C 7.1 °C 1010.4 hPa Calm   3.5 km/h 82% 0 mm
04:28 9.9 °C 6.9 °C 1010.4 hPa Calm   2.6 km/h 82% 0 mm
04:33 9.8 °C 6.7 °C 1010.4 hPa East 1.1 km/h 2.6 km/h 81% 0 mm
04:38 9.7 °C 6.6 °C 1010.4 hPa Calm   2.6 km/h 81% 0 mm
04:43 9.6 °C 6.5 °C 1010.4 hPa Calm   2.6 km/h 81% 0 mm
04:48 9.5 °C 6.4 °C 1010.4 hPa Calm   2.6 km/h 81% 0 mm
04:53 9.5 °C 6.4 °C 1010.4 hPa Calm   1.1 km/h 81% 0 mm
04:59 9.3 °C 6.1 °C 1010.4 hPa Calm   1.1 km/h 80% 0 mm
05:04 9.2 °C 5.9 °C 1010 hPa Calm   1.1 km/h 80% 0 mm
05:09 9.1 °C 5.8 °C 1010 hPa Calm   1.1 km/h 80% 0 mm
05:14 9.1 °C 5.8 °C 1010.4 hPa Calm   2.6 km/h 80% 0 mm
05:19 9 °C 5.8 °C 1010 hPa Calm   3.5 km/h 80% 0 mm
05:24 9 °C 5.8 °C 1010.4 hPa Calm   3.5 km/h 80% 0 mm
05:29 8.9 °C 5.7 °C 1010 hPa Calm   2.6 km/h 80% 0 mm
05:34 8.9 °C 5.8 °C 1010 hPa Calm   2.6 km/h 81% 0 mm
05:39 8.9 °C 5.8 °C 1010 hPa East 1.1 km/h 3.5 km/h 81% 0 mm
05:44 8.9 °C 5.8 °C 1010 hPa Calm   3.5 km/h 81% 0 mm
05:49 8.8 °C 5.7 °C 1010 hPa East 1.1 km/h 2.6 km/h 81% 0 mm
05:54 8.9 °C 6 °C 1010 hPa SSE 1.1 km/h 2.6 km/h 82% 0 mm
05:59 8.9 °C 6 °C 1010 hPa South 1.1 km/h 3.5 km/h 82% 0 mm
06:04 8.9 °C 6.2 °C 1010 hPa South 1.1 km/h 3.5 km/h 83% 0 mm
06:09 8.9 °C 6.2 °C 1010 hPa South 1.1 km/h 3.5 km/h 83% 0 mm
06:14 9 °C 6.3 °C 1010 hPa South 1.1 km/h 3.5 km/h 83% 0 mm
06:19 9 °C 6.4 °C 1010 hPa South 1.1 km/h 3.5 km/h 84% 0 mm
06:24 9 °C 6.4 °C 1010 hPa Calm   2.6 km/h 84% 0 mm
06:29 9 °C 6.4 °C 1010 hPa SSW 1.1 km/h 2.6 km/h 84% 0 mm
06:34 9 °C 6.4 °C 1010 hPa SSW 1.1 km/h 3.5 km/h 84% 0 mm
06:39 9 °C 6.4 °C 1010 hPa SSW 1.1 km/h 3.5 km/h 84% 0 mm
06:45 9.1 °C 6.7 °C 1010 hPa SSW 2.6 km/h 3.5 km/h 85% 0 mm
06:50 9.3 °C 6.9 °C 1010 hPa SSW 3.5 km/h 7.2 km/h 85% 0 mm
06:55 9.5 °C 7.3 °C 1010.4 hPa SSW 1.1 km/h 8.7 km/h 86% 0 mm
07:00 9.6 °C 7.4 °C 1010.4 hPa SSW 1.1 km/h 8.7 km/h 86% 0 mm
07:05 9.7 °C 7.5 °C 1010.4 hPa Calm   8.7 km/h 86% 0 mm
07:10 9.9 °C 7.7 °C 1010.4 hPa SSW 3.5 km/h 8.7 km/h 86% 0 mm
07:15 10.1 °C 7.8 °C 1010.4 hPa SSW 1.1 km/h 7.2 km/h 86% 0 mm
07:20 10.1 °C 7.7 °C 1010.4 hPa SSE 2.6 km/h 6.1 km/h 85% 0 mm
07:25 10.2 °C 7.8 °C 1010.4 hPa SSE 1.1 km/h 6.1 km/h 85% 0 mm
07:30 10.3 °C 7.9 °C 1010.4 hPa Calm   6.1 km/h 85% 0 mm
07:35 10.4 °C 7.8 °C 1010.4 hPa SSE 1.1 km/h 6.1 km/h 84% 0 mm
07:40 10.5 °C 7.9 °C 1010.4 hPa Calm   5 km/h 84% 0 mm
07:45 10.6 °C 8 °C 1010.4 hPa ESE 2.6 km/h 7.2 km/h 84% 0 mm
07:50 10.8 °C 8 °C 1010.7 hPa East 1.1 km/h 7.2 km/h 83% 0 mm
07:55 11 °C 8.2 °C 1010.7 hPa ESE 1.1 km/h 5 km/h 83% 0 mm
08:00 11.3 °C 8.3 °C 1010.7 hPa ESE 3.5 km/h 6.1 km/h 82% 0 mm
08:05 11.4 °C 8.3 °C 1010.7 hPa SE 3.5 km/h 9.7 km/h 81% 0 mm
08:10 11.8 °C 8.4 °C 1010.7 hPa SSE 3.5 km/h 9.7 km/h 80% 0 mm
08:15 11.9 °C 8.4 °C 1010.7 hPa South 2.6 km/h 8.7 km/h 79% 0 mm
08:20 12.2 °C 8.6 °C 1010.7 hPa SSE 5 km/h 8.7 km/h 78% 0 mm
08:25 12.4 °C 8.3 °C 1010.7 hPa SSE 5 km/h 7.2 km/h 76% 0 mm
08:30 12.7 °C 8.1 °C 1011.1 hPa South 6.1 km/h 8.7 km/h 74% 0 mm
08:36 12.8 °C 8.1 °C 1010.7 hPa SSW 5 km/h 11.1 km/h 73% 0 mm
08:41 13.1 °C 8.3 °C 1011.1 hPa South 3.5 km/h 11.1 km/h 73% 0 mm
08:46 13.3 °C 8.4 °C 1011.1 hPa SSE 5 km/h 11.1 km/h 72% 0 mm
08:51 13.5 °C 8.4 °C 1011.1 hPa SE 3.5 km/h 11.1 km/h 71% 0 mm
08:56 13.8 °C 8.4 °C 1011.1 hPa South 1.1 km/h 11.1 km/h 70% 0 mm
09:01 14.1 °C 8.5 °C 1011.1 hPa SSW 3.5 km/h 8.7 km/h 69% 0 mm
09:06 14.3 °C 8.3 °C 1011.1 hPa South 7.2 km/h 12.2 km/h 67% 0 mm
09:11 14.4 °C 8.2 °C 1011.1 hPa SW 1.1 km/h 15.8 km/h 66% 0 mm
09:16 14.6 °C 8.1 °C 1011.1 hPa SW 7.2 km/h 18.3 km/h 65% 0 mm
09:21 14.8 °C 8.1 °C 1011.1 hPa SSW 3.5 km/h 18.3 km/h 64% 0 mm
09:26 15 °C 8 °C 1011.1 hPa SSW 8.7 km/h 14.8 km/h 63% 0 mm
09:31 15.2 °C 7.9 °C 1011.1 hPa WSW 8.7 km/h 15.8 km/h 62% 0 mm
09:36 15.5 °C 8 °C 1011.1 hPa West 9.7 km/h 18.3 km/h 61% 0 mm
09:41 15.8 °C 8.3 °C 1011.1 hPa West 5 km/h 18.3 km/h 61% 0 mm
09:46 15.7 °C 7.7 °C 1011.1 hPa WSW 6.1 km/h 17.2 km/h 59% 0 mm
09:51 15.8 °C 7.8 °C 1011.1 hPa SW 8.7 km/h 17.2 km/h 59% 0 mm
09:56 15.8 °C 7.8 °C 1011.1 hPa SW 9.7 km/h 18.3 km/h 59% 0 mm
10:01 16 °C 7.7 °C 1011.1 hPa WSW 8.7 km/h 19.5 km/h 58% 0 mm
10:06 16.4 °C 8.3 °C 1011.1 hPa West 7.2 km/h 19.5 km/h 59% 0 mm
10:11 16.8 °C 8.3 °C 1011.1 hPa West 5 km/h 13.4 km/h 57% 0 mm
10:16 16.8 °C 7.7 °C 1011.4 hPa WSW 8.7 km/h 15.8 km/h 55% 0 mm
10:21 16.7 °C 7.6 °C 1011.1 hPa SW 11.1 km/h 17.2 km/h 55% 0 mm
10:26 16.6 °C 7.8 °C 1011.1 hPa SW 6.1 km/h 17.2 km/h 56% 0 mm
10:31 17.2 °C 7.8 °C 1011.1 hPa WSW 8.7 km/h 18.3 km/h 54% 0 mm
10:36 17.3 °C 7.7 °C 1011.1 hPa WSW 12.2 km/h 21.9 km/h 53% 0 mm
10:41 17.4 °C 8.1 °C 1011.1 hPa WSW 2.6 km/h 21.9 km/h 54% 0 mm
10:46 17.7 °C 7.8 °C 1011.1 hPa SW 7.2 km/h 21.9 km/h 52% 0 mm
10:52 17.8 °C 7.8 °C 1011.1 hPa WSW 2.6 km/h 20.9 km/h 52% 0 mm
10:57 18.1 °C 8.3 °C 1011.1 hPa WNW 6.1 km/h 20.9 km/h 53% 0 mm
11:02 18.2 °C 8.2 °C 1011.1 hPa West 2.6 km/h 17.2 km/h 52% 0 mm
11:07 18.8 °C 7.9 °C 1011.1 hPa SW 7.2 km/h 17.2 km/h 49% 0 mm
11:12 19.2 °C 8.2 °C 1010.7 hPa West 6.1 km/h 14.8 km/h 49% 0 mm
11:17 19.4 °C 8.4 °C 1011.1 hPa WSW 3.5 km/h 14.8 km/h 49% 0 mm
11:22 19.6 °C 8.3 °C 1010.7 hPa West 3.5 km/h 13.4 km/h 48% 0 mm
11:27 20 °C 8.9 °C 1010.7 hPa WNW 3.5 km/h 12.2 km/h 49% 0 mm
11:32 20.4 °C 8.1 °C 1010.7 hPa WNW 7.2 km/h 13.4 km/h 45% 0 mm
11:37 19.9 °C 8.3 °C 1010.7 hPa West 5 km/h 14.8 km/h 47% 0 mm
11:42 20.2 °C 8.2 °C 1010.7 hPa WSW 3.5 km/h 15.8 km/h 46% 0 mm
11:47 20.2 °C 7.9 °C 1010.7 hPa SW 6.1 km/h 23.3 km/h 45% 0 mm
11:52 20.2 °C 7.9 °C 1010.7 hPa SW 7.2 km/h 23.3 km/h 45% 0 mm
11:57 19.9 °C 7.9 °C 1010.7 hPa WSW 6.1 km/h 17.2 km/h 46% 0 mm
12:02 20 °C 8.1 °C 1010.7 hPa SW 8.7 km/h 15.8 km/h 46% 0 mm
12:07 20.3 °C 8 °C 1010.4 hPa SSW 8.7 km/h 19.5 km/h 45% 0 mm
12:08 20.3 °C 8 °C 1010.7 hPa SW 9.7 km/h 19.5 km/h 45% 0 mm
12:14 20.4 °C 7.7 °C 1010.4 hPa WSW 6.1 km/h 20.9 km/h 44% 0 mm
12:19 20.6 °C 8.2 °C 1010.4 hPa West 7.2 km/h 20.9 km/h 45% 0 mm
12:24 21.4 °C 8.6 °C 1010 hPa WNW 7.2 km/h 15.8 km/h 44% 0 mm
12:29 22.1 °C 9.2 °C 1010 hPa NW 7.2 km/h 17.2 km/h 44% 0 mm
12:34 22.6 °C 9.3 °C 1010 hPa WNW 5 km/h 17.2 km/h 43% 0 mm
12:39 22.9 °C 9 °C 1010 hPa NW 5 km/h 17.2 km/h 41% 0 mm
12:44 22.2 °C 8.4 °C 1009.7 hPa WSW 6.1 km/h 18.3 km/h 41% 0 mm
12:49 21.8 °C 8.4 °C 1009.7 hPa SW 11.1 km/h 20.9 km/h 42% 0 mm
12:54 21.2 °C 8.1 °C 1009.7 hPa SSW 13.4 km/h 20.9 km/h 43% 0 mm
12:59 20.9 °C 8.3 °C 1009.7 hPa SW 8.7 km/h 18.3 km/h 44% 0 mm
13:04 20.7 °C 8.3 °C 1009.4 hPa WSW 5 km/h 19.5 km/h 45% 0 mm
13:09 20.9 °C 8.5 °C 1009.4 hPa SSW 3.5 km/h 19.5 km/h 45% 0 mm
13:14 21.4 °C 8.6 °C 1009.4 hPa SSE 7.2 km/h 14.8 km/h 44% 0 mm
13:19 21.4 °C 8.7 °C 1009.4 hPa SW 3.5 km/h 15.8 km/h 44% 0 mm
13:24 21.9 °C 9.5 °C 1009 hPa WNW 8.7 km/h 15.8 km/h 45% 0 mm
13:29 21.9 °C 8.4 °C 1009 hPa West 9.7 km/h 19.5 km/h 42% 0 mm
13:34 21.8 °C 8.6 °C 1009 hPa SW 3.5 km/h 19.5 km/h 43% 0 mm
13:39 21.9 °C 8.8 °C 1009 hPa WSW 1.1 km/h 18.3 km/h 43% 0 mm
13:44 22.4 °C 8.6 °C 1008.7 hPa WSW 5 km/h 13.4 km/h 41% 0 mm
13:49 22.6 °C 8 °C 1008.7 hPa West 6.1 km/h 13.4 km/h 39% 0 mm
13:54 22.8 °C 8.9 °C 1008.7 hPa West 3.5 km/h 13.4 km/h 41% 0 mm
13:59 23.9 °C 9.5 °C 1008.7 hPa WNW 7.2 km/h 14.8 km/h 40% 0 mm
14:04 24.6 °C 9.3 °C 1008.7 hPa NNE 6.1 km/h 14.8 km/h 38% 0 mm
14:09 24.4 °C 8.8 °C 1008.7 hPa NNW 7.2 km/h 17.2 km/h 37% 0 mm
14:14 23.8 °C 8.3 °C 1008.7 hPa West 3.5 km/h 18.3 km/h 37% 0 mm
14:19 23.9 °C 9.1 °C 1008.7 hPa West 2.6 km/h 18.3 km/h 39% 0 mm
14:24 24.3 °C 8.7 °C 1008.7 hPa NW 6.1 km/h 12.2 km/h 37% 0 mm
14:29 24.6 °C 9.7 °C 1008.4 hPa NW 7.2 km/h 17.2 km/h 39% 0 mm
14:35 25 °C 9.3 °C 1008.4 hPa NW 1.1 km/h 17.2 km/h 37% 0 mm
14:40 25.2 °C 9.1 °C 1008 hPa NNW 7.2 km/h 13.4 km/h 36% 0 mm
14:45 25.2 °C 9.9 °C 1008.4 hPa NNW 9.7 km/h 20.9 km/h 38% 0 mm
14:50 25.4 °C 10.1 °C 1008 hPa NNW 6.1 km/h 23.3 km/h 38% 0 mm
14:55 25.5 °C 10.2 °C 1008 hPa NNW 9.7 km/h 23.3 km/h 38% 0 mm
15:00 25.6 °C 10.2 °C 1007.7 hPa NNW 5 km/h 24.5 km/h 38% 0 mm
15:05 25.6 °C 9.8 °C 1007.7 hPa North 8.7 km/h 24.5 km/h 37% 0 mm
15:10 25.7 °C 10.3 °C 1007.7 hPa North 14.8 km/h 24.5 km/h 38% 0 mm
15:15 25.6 °C 10.2 °C 1007.3 hPa North 7.2 km/h 21.9 km/h 38% 0 mm
15:20 25.6 °C 10.2 °C 1007.7 hPa NNE 5 km/h 21.9 km/h 38% 0 mm
15:25 25.6 °C 9.8 °C 1007.3 hPa NNW 11.1 km/h 19.5 km/h 37% 0 mm
15:30 25.6 °C 9.8 °C 1007.3 hPa NW 3.5 km/h 19.5 km/h 37% 0 mm
15:35 25.3 °C 9.6 °C 1007.3 hPa WNW 12.2 km/h 20.9 km/h 37% 0 mm
15:40 25.4 °C 9.7 °C 1007.3 hPa WNW 5 km/h 20.9 km/h 37% 0 mm
15:45 25.3 °C 9.2 °C 1007.3 hPa WNW 8.7 km/h 21.9 km/h 36% 0 mm
15:50 25 °C 9.7 °C 1007.3 hPa WNW 7.2 km/h 21.9 km/h 38% 0 mm
15:55 25 °C 9.3 °C 1007.3 hPa NW 8.7 km/h 19.5 km/h 37% 0 mm
16:00 24.7 °C 9.1 °C 1007.3 hPa NW 9.7 km/h 21.9 km/h 37% 0 mm
16:05 24.6 °C 9.3 °C 1007.3 hPa WNW 3.5 km/h 21.9 km/h 38% 0 mm
16:10 24.9 °C 10 °C 1007 hPa NW 7.2 km/h 19.5 km/h 39% 0 mm
16:16 24.8 °C 9.1 °C 1007.3 hPa NW 7.2 km/h 19.5 km/h 37% 0 mm
16:21 24.8 °C 9.1 °C 1007.3 hPa WNW 3.5 km/h 17.2 km/h 37% 0 mm
16:26 24.7 °C 9.4 °C 1007 hPa West 7.2 km/h 18.3 km/h 38% 0 mm
16:31 24.6 °C 9.7 °C 1007 hPa West 5 km/h 18.3 km/h 39% 0 mm
16:36 24.7 °C 9.4 °C 1007 hPa WNW 5 km/h 15.8 km/h 38% 0 mm
16:41 24.7 °C 9.8 °C 1007 hPa NW 8.7 km/h 17.2 km/h 39% 0 mm
16:46 24.9 °C 9.6 °C 1006.7 hPa WNW 5 km/h 17.2 km/h 38% 0 mm
16:51 24.9 °C 10 °C 1006.7 hPa WNW 6.1 km/h 18.3 km/h 39% 0 mm
16:56 25 °C 9.7 °C 1006.3 hPa WNW 9.7 km/h 18.3 km/h 38% 0 mm
17:01 24.9 °C 9.6 °C 1006.7 hPa WNW 7.2 km/h 15.8 km/h 38% 0 mm
17:06 24.8 °C 9.6 °C 1006.7 hPa West 7.2 km/h 15.8 km/h 38% 0 mm
17:11 24.9 °C 10 °C 1006.7 hPa West 7.2 km/h 19.5 km/h 39% 0 mm
17:16 24.9 °C 9.6 °C 1006.7 hPa NW 7.2 km/h 19.5 km/h 38% 0 mm
17:21 24.8 °C 9.9 °C 1006.7 hPa NW 5 km/h 19.5 km/h 39% 0 mm
17:26 24.6 °C 9.7 °C 1006.3 hPa WNW 5 km/h 18.3 km/h 39% 0 mm
17:31 24.6 °C 9.7 °C 1006.3 hPa WNW 7.2 km/h 17.2 km/h 39% 0 mm
17:36 24.4 °C 9.2 °C 1006.3 hPa WNW 8.7 km/h 15.8 km/h 38% 0 mm
17:41 23.9 °C 9.1 °C 1006.7 hPa West 9.7 km/h 18.3 km/h 39% 0 mm
17:46 23.8 °C 9.4 °C 1006.3 hPa WNW 13.4 km/h 27 km/h 40% 0 mm
17:51 23.4 °C 9.1 °C 1006.7 hPa WNW 7.2 km/h 27 km/h 40% 0 mm
17:56 23.1 °C 8.8 °C 1006.7 hPa West 9.7 km/h 21.9 km/h 40% 0 mm
18:01 22.9 °C 9 °C 1006.3 hPa West 11.1 km/h 24.5 km/h 41% 0 mm
18:06 22.8 °C 8.9 °C 1006.3 hPa West 9.7 km/h 24.5 km/h 41% 0 mm
18:11 22.4 °C 8.6 °C 1006.7 hPa West 8.7 km/h 23.3 km/h 41% 0 mm
18:16 22.2 °C 8.7 °C 1006.3 hPa West 8.7 km/h 19.5 km/h 42% 0 mm
18:21 22.2 °C 8.7 °C 1006.7 hPa West 6.1 km/h 17.2 km/h 42% 0 mm
18:26 22.4 °C 8.9 °C 1006.7 hPa West 6.1 km/h 14.8 km/h 42% 0 mm
18:31 22.4 °C 8.6 °C 1006.7 hPa West 6.1 km/h 13.4 km/h 41% 0 mm
18:36 22.2 °C 8.7 °C 1006.7 hPa WSW 12.2 km/h 17.2 km/h 42% 0 mm
18:41 22.2 °C 8.7 °C 1006.7 hPa West 2.6 km/h 17.2 km/h 42% 0 mm
18:46 22.2 °C 9 °C 1006.7 hPa WNW 7.2 km/h 17.2 km/h 43% 0 mm
18:51 21.8 °C 9 °C 1006.7 hPa WNW 7.2 km/h 14.8 km/h 44% 0 mm
18:56 21.6 °C 8.8 °C 1006.3 hPa WNW 6.1 km/h 14.8 km/h 44% 0 mm
19:01 21.4 °C 8.6 °C 1006.3 hPa WNW 5 km/h 14.8 km/h 44% 0 mm
19:06 21.3 °C 8.9 °C 1006.7 hPa West 8.7 km/h 18.3 km/h 45% 0 mm
19:11 21.1 °C 8.7 °C 1006.3 hPa WNW 8.7 km/h 21.9 km/h 45% 0 mm
19:16 20.9 °C 8.6 °C 1006.3 hPa NW 9.7 km/h 21.9 km/h 45% 0 mm
19:22 20.8 °C 8.7 °C 1006 hPa WNW 11.1 km/h 21.9 km/h 46% 0 mm
19:27 20.6 °C 8.6 °C 1006 hPa West 6.1 km/h 18.3 km/h 46% 0 mm
www.araratweather.com - Email: contact at araratweather.com
Data created with Cumulus & bmak
Click here to send mail.


ABOUT

Live weather data from Ararat, Victoria, Australia, 3377
Data uploaded from Cumulus every 5 minutes to Weather Underground.
This site then downloads the raw data for formatting and display.
Metric and imperial data can be displayed. Graphs and historical data available.
Includes Sun and Moon times and rain image live from BOM.

Check out Ararat Weather on Facebook, Twitter and Google +

Help support ongoing costs by checking out the ads





Follow @AraratWeather